Time;durP1;ratioP1;P1;durP2;ratioP2;P2;SDS_P1;SDS_P2;PMS_P1;PMS_P2;Temp;Humidity;BMP_temperature;BMP_pressure;BME280_temperature;BME280_humidity;BME280_pressure;Samples;Min_cycle;Max_cycle;Signal;HPM_P1;HPM_P2
2022/10/26 00:00:46;;;;;;;5.13;3.30;;;13.90;99.90;;;;;;5096718;28;20076;-71
2022/10/26 00:03:12;;;;;;;7.03;3.10;;;14.00;99.90;;;;;;5096794;28;20043;-71
2022/10/26 00:05:38;;;;;;;9.63;3.25;;;13.90;99.90;;;;;;5096443;28;20119;-71
2022/10/26 00:08:05;;;;;;;5.10;2.55;;;14.00;99.90;;;;;;5096677;28;20107;-71
2022/10/26 00:10:33;;;;;;;5.63;3.30;;;14.10;99.90;;;;;;5097297;28;20398;-71
2022/10/26 00:12:59;;;;;;;7.15;3.38;;;14.00;99.90;;;;;;5080007;28;20031;-70
2022/10/26 00:15:25;;;;;;;10.98;3.30;;;14.10;99.90;;;;;;5079739;28;20097;-71
2022/10/26 00:17:51;;;;;;;10.85;3.05;;;14.10;99.90;;;;;;5096534;28;20028;-71
2022/10/26 00:20:16;;;;;;;7.00;3.28;;;14.20;99.90;;;;;;5097324;28;20528;-71
2022/10/26 00:22:42;;;;;;;4.97;3.00;;;14.10;99.90;;;;;;5097132;28;20035;-71
2022/10/26 00:25:08;;;;;;;10.23;3.28;;;14.00;99.90;;;;;;5097133;28;20166;-71
2022/10/26 00:27:37;;;;;;;5.68;3.10;;;14.00;99.90;;;;;;5097506;28;20036;-71
2022/10/26 00:30:05;;;;;;;7.85;2.90;;;14.00;99.90;;;;;;5079273;28;20029;-71
2022/10/26 00:32:31;;;;;;;7.80;2.92;;;14.00;99.90;;;;;;5097079;28;20038;-71
2022/10/26 00:34:57;;;;;;;6.68;2.78;;;14.10;99.90;;;;;;5096136;28;20119;-71
2022/10/26 00:37:23;;;;;;;7.15;2.42;;;14.00;99.90;;;;;;5079366;28;20071;-71
2022/10/26 00:39:49;;;;;;;7.55;2.78;;;14.00;99.90;;;;;;5096840;28;20406;-69
2022/10/26 00:42:21;;;;;;;7.93;3.10;;;14.10;99.90;;;;;;5097048;28;20028;-70
2022/10/26 00:44:46;;;;;;;5.55;2.80;;;14.10;99.90;;;;;;5096862;28;20103;-71
2022/10/26 00:47:24;;;;;;;7.00;2.90;;;14.10;99.90;;;;;;5096822;28;20058;-71
2022/10/26 00:49:53;;;;;;;4.20;2.65;;;14.20;99.90;;;;;;5097121;28;20321;-70
2022/10/26 00:52:21;;;;;;;8.40;2.97;;;14.20;99.90;;;;;;5096663;28;20277;-71
2022/10/26 00:54:47;;;;;;;6.28;2.83;;;14.10;99.90;;;;;;5096042;28;20040;-71
2022/10/26 00:57:17;;;;;;;5.68;2.60;;;14.00;99.90;;;;;;5096582;28;20071;-71
2022/10/26 00:59:44;;;;;;;5.07;2.80;;;13.90;99.90;;;;;;5096781;28;20040;-71
2022/10/26 01:02:11;;;;;;;5.00;2.58;;;13.80;99.90;;;;;;5095851;28;20040;-70
2022/10/26 01:04:36;;;;;;;6.47;3.25;;;13.80;99.90;;;;;;5096028;28;20020;-71
2022/10/26 01:07:07;;;;;;;5.13;2.78;;;13.80;99.90;;;;;;5095935;28;20028;-71
2022/10/26 01:09:34;;;;;;;7.03;2.50;;;13.70;99.90;;;;;;5095899;28;20375;-71
2022/10/26 01:12:00;;;;;;;8.45;3.10;;;13.70;99.90;;;;;;5096580;28;20296;-71
2022/10/26 01:14:28;;;;;;;5.20;2.55;;;13.70;99.90;;;;;;5079204;28;20043;-72
2022/10/26 01:17:22;;;;;;;3.67;2.70;;;13.60;99.90;;;;;;5097135;28;20448;-71
2022/10/26 01:19:52;;;;;;;6.95;3.15;;;13.70;99.90;;;;;;5099932;28;20036;-71
2022/10/26 01:22:25;;;;;;;5.63;2.97;;;13.70;99.90;;;;;;5099621;28;20070;-71
2022/10/26 01:25:27;;;;;;;6.13;2.88;;;13.70;99.90;;;;;;5100695;28;20020;-71
2022/10/26 01:27:53;;;;;;;10.10;2.72;;;13.70;99.90;;;;;;5100967;28;20036;-71
2022/10/26 01:30:40;;;;;;;5.10;2.40;;;13.60;99.90;;;;;;5099602;28;20348;-71
2022/10/26 01:33:29;;;;;;;6.30;2.80;;;13.60;99.90;;;;;;5099449;28;20032;-71
2022/10/26 01:36:02;;;;;;;9.27;3.28;;;13.60;99.90;;;;;;5099796;28;20048;-71
2022/10/26 01:38:51;;;;;;;4.85;2.42;;;13.70;99.90;;;;;;5099488;28;20064;-71
2022/10/26 01:41:33;;;;;;;7.78;3.05;;;13.60;99.90;;;;;;5100104;28;20344;-71
2022/10/26 01:44:17;;;;;;;5.32;3.28;;;13.60;99.90;;;;;;5100125;28;20032;-71
2022/10/26 01:46:46;;;;;;;7.65;3.38;;;13.60;99.90;;;;;;5099167;28;20028;-72
2022/10/26 01:49:14;;;;;;;7.40;3.08;;;13.50;99.90;;;;;;5099972;28;20034;-71
2022/10/26 01:51:42;;;;;;;6.63;2.67;;;13.40;99.90;;;;;;5100176;28;20042;-71
2022/10/26 01:54:08;;;;;;;5.55;3.22;;;13.40;99.90;;;;;;5099081;28;20089;-71
2022/10/26 01:56:41;;;;;;;4.93;2.60;;;13.40;99.90;;;;;;5099574;28;20078;-71
2022/10/26 01:59:13;;;;;;;;;;;13.40;99.90;;;;;;5082608;28;20075;-71
2022/10/26 02:01:50;;;;;;;8.00;2.53;;;13.40;99.90;;;;;;5081856;28;19916;-71
2022/10/26 02:04:27;;;;;;;6.00;2.80;;;13.50;99.90;;;;;;5099532;28;20024;-71
2022/10/26 02:07:05;;;;;;;8.35;2.70;;;13.60;99.90;;;;;;5098772;28;20035;-72
2022/10/26 02:09:41;;;;;;;4.93;2.33;;;13.60;99.90;;;;;;5098864;28;20028;-72
2022/10/26 02:12:20;;;;;;;5.97;2.40;;;13.60;99.90;;;;;;5099680;28;20272;-71
2022/10/26 02:14:48;;;;;;;5.68;2.50;;;13.60;99.90;;;;;;5098660;28;20055;-71
2022/10/26 02:17:42;;;;;;;7.68;2.78;;;13.60;99.90;;;;;;5099445;28;20035;-71
2022/10/26 02:20:15;;;;;;;5.10;2.63;;;13.60;99.90;;;;;;5081621;28;20032;-71
2022/10/26 02:22:45;;;;;;;4.22;2.33;;;13.70;99.90;;;;;;5099320;28;20024;-71
2022/10/26 02:25:28;;;;;;;5.40;2.42;;;13.70;99.90;;;;;;5099331;28;20059;-71
2022/10/26 02:28:01;;;;;;;6.80;2.60;;;13.70;99.90;;;;;;5098424;28;20081;-71
2022/10/26 02:30:27;;;;;;;3.85;2.25;;;13.70;99.90;;;;;;5099445;28;20351;-71
2022/10/26 02:32:56;;;;;;;8.60;2.75;;;13.70;99.90;;;;;;5098967;28;20089;-72
2022/10/26 02:35:28;;;;;;;5.05;2.60;;;13.80;99.90;;;;;;5098449;28;20067;-71
2022/10/26 02:37:56;;;;;;;8.00;2.70;;;13.80;99.90;;;;;;5098553;28;20455;-71
2022/10/26 02:40:25;;;;;;;6.47;2.65;;;13.80;99.90;;;;;;5099003;28;20032;-71
2022/10/26 02:42:54;;;;;;;8.77;2.45;;;13.80;99.90;;;;;;5098282;28;20028;-71
2022/10/26 02:45:30;;;;;;;6.95;2.35;;;13.80;99.90;;;;;;5081356;28;20277;-71
2022/10/26 02:47:56;;;;;;;3.17;2.30;;;13.80;99.90;;;;;;5098159;28;20323;-71
2022/10/26 02:50:30;;;;;;;4.55;2.22;;;13.80;99.90;;;;;;5081160;28;20032;-71
2022/10/26 02:53:14;;;;;;;3.20;2.25;;;13.80;99.90;;;;;;5098504;28;20080;-71
2022/10/26 02:55:47;;;;;;;6.15;2.63;;;13.90;99.90;;;;;;5098696;28;20297;-71
2022/10/26 02:58:21;;;;;;;7.32;2.10;;;13.90;99.90;;;;;;5098978;28;20068;-72
2022/10/26 03:00:48;;;;;;;7.00;2.20;;;13.90;99.90;;;;;;5098541;28;20024;-71
2022/10/26 03:03:15;;;;;;;4.75;2.15;;;13.90;99.90;;;;;;5097740;28;20055;-72
2022/10/26 03:05:42;;;;;;;6.15;2.30;;;13.90;99.90;;;;;;5097566;28;20024;-71
2022/10/26 03:08:08;;;;;;;5.70;2.35;;;13.90;99.90;;;;;;5097695;28;20028;-72
2022/10/26 03:10:42;;;;;;;4.95;2.17;;;14.00;99.90;;;;;;5097489;28;20028;-71
2022/10/26 03:13:09;;;;;;;5.82;2.42;;;14.00;99.90;;;;;;5097511;28;20089;-71
2022/10/26 03:15:35;;;;;;;4.35;2.20;;;14.00;99.90;;;;;;5098261;28;20036;-71
2022/10/26 03:18:01;;;;;;;5.05;2.20;;;14.00;99.90;;;;;;5097581;28;20339;-71
2022/10/26 03:20:28;;;;;;;6.50;2.72;;;14.10;99.90;;;;;;5098076;28;20028;-71
2022/10/26 03:22:55;;;;;;;5.30;2.33;;;14.10;99.90;;;;;;5080514;28;20299;-71
2022/10/26 03:25:25;;;;;;;5.50;2.28;;;14.10;99.90;;;;;;5097221;28;20032;-69
2022/10/26 03:27:58;;;;;;;3.67;2.08;;;14.20;99.90;;;;;;5098095;28;20405;-69
2022/10/26 03:30:24;;;;;;;8.18;2.22;;;14.10;99.90;;;;;;5097241;28;20040;-69
2022/10/26 03:32:50;;;;;;;5.20;2.15;;;14.10;99.90;;;;;;5097171;28;20299;-69
2022/10/26 03:35:17;;;;;;;4.63;2.53;;;14.20;99.90;;;;;;5080274;28;20058;-69
2022/10/26 03:37:42;;;;;;;6.93;2.08;;;14.20;99.90;;;;;;5097812;28;20028;-69
2022/10/26 03:40:09;;;;;;;5.00;2.30;;;14.20;99.90;;;;;;5096560;28;20028;-69
2022/10/26 03:42:36;;;;;;;5.95;2.35;;;14.30;99.90;;;;;;5097145;28;20032;-71
2022/10/26 03:45:03;;;;;;;4.90;2.42;;;14.30;99.90;;;;;;5079685;28;20040;-70
2022/10/26 03:47:28;;;;;;;4.95;2.10;;;14.30;99.90;;;;;;5097754;28;20127;-70
2022/10/26 03:49:54;;;;;;;7.28;2.30;;;14.40;99.90;;;;;;5097630;28;20131;-70
2022/10/26 03:52:20;;;;;;;4.60;2.33;;;14.40;99.90;;;;;;5096817;28;20203;-70
2022/10/26 03:54:47;;;;;;;4.47;2.10;;;14.30;99.90;;;;;;5080420;28;20366;-69
2022/10/26 03:57:12;;;;;;;7.35;2.20;;;14.40;99.90;;;;;;5096742;28;20076;-69
2022/10/26 03:59:38;;;;;;;3.78;2.25;;;14.40;99.90;;;;;;5079811;28;20072;-70
2022/10/26 04:02:04;;;;;;;5.90;2.15;;;14.40;99.90;;;;;;5096897;28;20311;-70
2022/10/26 04:04:30;;;;;;;4.45;1.95;;;14.40;99.90;;;;;;5063184;28;20032;-70
2022/10/26 04:06:56;;;;;;;5.20;2.10;;;14.40;99.90;;;;;;5079578;28;20043;-69
2022/10/26 04:09:21;;;;;;;5.90;2.10;;;14.40;99.90;;;;;;5097385;28;20024;-69
2022/10/26 04:11:47;;;;;;;3.80;2.00;;;14.40;99.90;;;;;;5096395;28;20083;-70
2022/10/26 04:14:13;;;;;;;3.47;2.05;;;14.40;99.90;;;;;;5096385;28;20047;-69
2022/10/26 04:16:39;;;;;;;4.13;1.98;;;14.30;99.90;;;;;;5097293;28;20032;-69
2022/10/26 04:19:05;;;;;;;5.10;2.15;;;14.40;99.90;;;;;;5096631;28;20111;-71
2022/10/26 04:21:34;;;;;;;5.93;2.00;;;14.40;99.90;;;;;;5096225;28;20039;-70
2022/10/26 04:24:00;;;;;;;8.95;2.28;;;14.40;99.90;;;;;;5096381;28;20051;-69
2022/10/26 04:26:26;;;;;;;4.25;1.73;;;14.40;99.90;;;;;;5096803;28;20040;-69
2022/10/26 04:28:53;;;;;;;3.35;1.75;;;14.40;99.90;;;;;;5079642;28;20380;-69
2022/10/26 04:31:19;;;;;;;5.55;2.42;;;14.40;99.90;;;;;;5096412;28;20346;-68
2022/10/26 04:33:44;;;;;;;4.55;1.95;;;14.30;99.90;;;;;;5062768;28;20031;-69
2022/10/26 04:36:10;;;;;;;3.33;2.03;;;14.30;99.90;;;;;;5079401;28;20040;-69
2022/10/26 04:38:36;;;;;;;3.03;2.00;;;14.30;99.90;;;;;;5096105;28;20043;-69
2022/10/26 04:41:02;;;;;;;5.72;2.10;;;14.40;99.90;;;;;;5097397;28;20024;-69
2022/10/26 04:43:30;;;;;;;3.70;1.85;;;14.40;99.90;;;;;;5079711;28;20135;-69
2022/10/26 04:45:57;;;;;;;4.97;2.03;;;14.40;99.90;;;;;;5096858;28;20444;-69
2022/10/26 04:48:23;;;;;;;5.30;2.00;;;14.40;99.90;;;;;;5096818;28;20031;-69
2022/10/26 04:50:49;;;;;;;4.55;2.05;;;14.40;99.90;;;;;;5096825;28;20094;-69
2022/10/26 04:53:15;;;;;;;5.47;1.80;;;14.40;99.90;;;;;;5099076;28;20116;-69
2022/10/26 04:55:41;;;;;;;5.65;1.95;;;14.40;99.90;;;;;;5100922;28;20036;-69
2022/10/26 04:58:07;;;;;;;4.05;2.10;;;14.40;99.90;;;;;;5083271;28;20052;-69
2022/10/26 05:00:34;;;;;;;5.75;2.15;;;14.40;99.90;;;;;;5099933;28;20032;-69
2022/10/26 05:03:01;;;;;;;6.30;2.00;;;14.50;99.90;;;;;;5101021;28;20419;-69
2022/10/26 05:05:27;;;;;;;3.47;1.70;;;14.60;99.90;;;;;;5100014;28;20276;-70
2022/10/26 05:07:55;;;;;;;4.22;2.08;;;14.60;99.90;;;;;;5100863;28;20053;-70
2022/10/26 05:10:23;;;;;;;2.97;1.65;;;14.60;99.90;;;;;;5083110;28;20039;-70
2022/10/26 05:12:53;;;;;;;3.15;1.83;;;14.60;99.90;;;;;;5083702;28;20318;-71
2022/10/26 05:15:20;;;;;;;8.57;1.92;;;14.70;99.90;;;;;;5100755;28;20386;-70
2022/10/26 05:17:46;;;;;;;2.58;1.60;;;14.70;99.90;;;;;;5082881;28;20024;-70
2022/10/26 05:20:13;;;;;;;4.82;1.83;;;14.70;99.90;;;;;;5100553;28;20032;-69
2022/10/26 05:22:39;;;;;;;4.38;2.00;;;14.70;99.90;;;;;;5100058;28;20315;-70
2022/10/26 05:25:06;;;;;;;3.47;1.75;;;14.70;99.90;;;;;;5100504;28;20038;-71
2022/10/26 05:27:31;;;;;;;4.05;2.25;;;14.80;99.90;;;;;;5100628;28;20025;-70
2022/10/26 05:29:57;;;;;;;3.22;1.67;;;14.80;99.90;;;;;;5100386;28;20097;-70
2022/10/26 05:32:23;;;;;;;5.53;2.17;;;14.80;99.90;;;;;;5100610;28;20415;-71
2022/10/26 05:34:49;;;;;;;5.82;2.05;;;14.80;99.90;;;;;;5100142;28;20371;-70
2022/10/26 05:37:14;;;;;;;4.03;2.00;;;14.80;99.90;;;;;;5099274;28;20077;-70
2022/10/26 05:39:42;;;;;;;3.53;1.95;;;14.80;99.90;;;;;;5099415;28;20032;-70
2022/10/26 05:42:08;;;;;;;4.68;1.85;;;14.80;99.90;;;;;;5099345;28;20106;-70
2022/10/26 05:44:33;;;;;;;4.97;1.70;;;14.80;99.90;;;;;;5099763;28;20041;-70
2022/10/26 05:46:59;;;;;;;4.85;2.22;;;14.90;99.90;;;;;;5099646;28;20028;-70
2022/10/26 05:49:25;;;;;;;6.20;1.65;;;14.90;99.90;;;;;;5065641;28;20028;-70
2022/10/26 05:51:54;;;;;;;2.88;1.30;;;14.90;99.90;;;;;;5099467;28;20041;-71
2022/10/26 05:54:19;;;;;;;6.40;2.00;;;14.80;99.90;;;;;;5099131;28;20311;-70
2022/10/26 05:56:45;;;;;;;4.45;1.60;;;14.90;99.90;;;;;;5099260;28;20043;-69
2022/10/26 05:59:17;;;;;;;3.58;1.67;;;14.80;99.90;;;;;;5100115;28;20039;-70
2022/10/26 06:01:50;;;;;;;6.20;1.67;;;14.70;99.90;;;;;;5098817;28;20431;-70
2022/10/26 06:04:37;;;;;;;4.93;1.95;;;14.60;99.90;;;;;;5099401;28;20152;-72
2022/10/26 06:07:09;;;;;;;6.40;1.67;;;14.50;99.90;;;;;;5099539;28;20039;-72
2022/10/26 06:09:36;;;;;;;4.85;1.55;;;14.50;99.90;;;;;;5082982;28;20304;-70
2022/10/26 06:12:02;;;;;;;8.27;1.70;;;14.50;99.90;;;;;;5099606;28;20031;-69
2022/10/26 06:14:28;;;;;;;6.03;1.58;;;14.40;99.90;;;;;;5099239;28;20420;-68
2022/10/26 06:17:23;;;;;;;4.43;1.60;;;14.40;99.90;;;;;;5098643;28;20028;-69
2022/10/26 06:20:10;;;;;;;2.85;1.33;;;14.40;99.90;;;;;;5099504;28;20031;-68
2022/10/26 06:23:03;;;;;;;3.88;1.63;;;14.50;99.90;;;;;;5098766;28;20051;-70
2022/10/26 06:25:37;;;;;;;;;;;14.40;99.90;;;;;;5098803;28;20024;-69
2022/10/26 06:28:05;;;;;;;3.58;1.58;;;14.30;99.90;;;;;;5098602;28;20257;-70
2022/10/26 06:30:31;;;;;;;5.97;2.15;;;14.20;99.90;;;;;;5099057;28;20028;-70
2022/10/26 06:33:00;;;;;;;7.93;2.17;;;14.20;99.90;;;;;;5081581;28;20077;-70
2022/10/26 06:35:54;;;;;;;12.23;2.55;;;14.20;99.90;;;;;;5098336;28;20042;-70
2022/10/26 06:38:26;;;;;;;7.65;2.17;;;14.20;99.90;;;;;;5099133;28;20119;-70
2022/10/26 06:40:56;;;;;;;6.63;2.58;;;14.20;99.90;;;;;;5099004;28;20036;-68
2022/10/26 06:43:27;;;;;;;6.50;2.38;;;14.30;99.90;;;;;;5098901;28;20043;-67
2022/10/26 06:46:04;;;;;;;8.05;2.38;;;14.40;99.90;;;;;;5099504;28;20034;-69
2022/10/26 06:48:38;;;;;;;5.10;2.30;;;14.40;99.90;;;;;;5098746;28;20028;-68
2022/10/26 06:51:04;;;;;;;5.95;2.40;;;14.30;99.90;;;;;;5081142;28;20111;-66
2022/10/26 06:53:38;;;;;;;5.07;2.15;;;14.40;99.90;;;;;;5080923;28;20122;-68
2022/10/26 06:56:04;;;;;;;6.53;2.33;;;14.30;99.90;;;;;;5098758;28;20051;-67
2022/10/26 06:58:35;;;;;;;7.70;2.47;;;14.40;99.90;;;;;;5098040;28;20303;-67
2022/10/26 07:01:01;;;;;;;7.55;2.58;;;14.30;99.90;;;;;;5098003;28;20036;-67
2022/10/26 07:03:27;;;;;;;7.45;2.58;;;14.40;99.90;;;;;;5098646;28;20287;-67
2022/10/26 07:05:53;;;;;;;4.80;2.67;;;14.40;99.90;;;;;;5097949;28;20039;-68
2022/10/26 07:08:18;;;;;;;6.95;2.55;;;14.40;99.90;;;;;;5080849;28;20115;-67
2022/10/26 07:10:46;;;;;;;8.00;2.80;;;14.40;99.90;;;;;;5080954;28;20288;-67
2022/10/26 07:13:12;;;;;;;4.53;2.50;;;14.50;99.90;;;;;;5097524;28;20032;-65
2022/10/26 07:15:42;;;;;;;5.38;2.45;;;14.50;99.90;;;;;;5096471;28;20040;-67
2022/10/26 07:18:08;;;;;;;6.30;2.22;;;14.50;99.90;;;;;;5098296;28;20318;-68
2022/10/26 07:20:38;;;;;;;4.15;2.33;;;14.40;99.90;;;;;;5098525;28;20295;-68
2022/10/26 07:23:06;;;;;;;6.30;2.70;;;14.40;99.90;;;;;;5098143;28;20139;-68
2022/10/26 07:25:32;;;;;;;4.90;1.95;;;14.40;99.90;;;;;;5098072;28;20063;-68
2022/10/26 07:27:59;;;;;;;7.18;2.30;;;14.40;99.90;;;;;;5097167;28;20327;-68
2022/10/26 07:30:26;;;;;;;3.40;2.17;;;14.50;99.90;;;;;;5097109;28;20354;-68
2022/10/26 07:33:05;;;;;;;4.80;2.25;;;14.60;99.90;;;;;;5097031;28;20391;-68
2022/10/26 07:35:32;;;;;;;5.97;2.30;;;14.60;99.90;;;;;;5097336;28;20039;-67
2022/10/26 07:37:59;;;;;;;4.00;2.17;;;14.60;99.90;;;;;;5097068;28;20032;-68
2022/10/26 07:40:25;;;;;;;9.07;2.53;;;14.60;99.90;;;;;;5080225;28;20127;-67
2022/10/26 07:42:51;;;;;;;9.95;2.40;;;14.70;99.90;;;;;;5097839;28;20028;-66
2022/10/26 07:45:18;;;;;;;8.38;2.50;;;14.80;99.90;;;;;;5097141;28;20047;-67
2022/10/26 07:47:45;;;;;;;7.80;2.22;;;14.90;99.90;;;;;;5080028;28;20026;-69
2022/10/26 07:50:11;;;;;;;5.85;2.47;;;15.00;99.90;;;;;;5063299;28;20032;-68
2022/10/26 07:52:40;;;;;;;8.90;2.00;;;15.00;99.90;;;;;;5097372;28;20040;-67
2022/10/26 07:55:07;;;;;;;9.10;2.58;;;15.10;99.90;;;;;;5080270;28;20059;-68
2022/10/26 07:57:33;;;;;;;5.88;2.63;;;15.20;99.90;;;;;;5079720;28;20059;-67
2022/10/26 07:59:59;;;;;;;5.25;2.50;;;15.30;99.90;;;;;;5096560;28;20100;-69
2022/10/26 08:02:25;;;;;;;6.50;2.20;;;15.40;99.90;;;;;;5096663;28;20341;-68
2022/10/26 08:04:51;;;;;;;4.60;1.80;;;15.60;99.90;;;;;;5097391;28;20028;-68
2022/10/26 08:07:18;;;;;;;4.18;2.05;;;15.70;99.90;;;;;;5080267;28;20040;-68
2022/10/26 08:09:44;;;;;;;4.68;2.08;;;15.70;99.90;;;;;;5097487;28;20036;-68
2022/10/26 08:12:12;;;;;;;10.38;2.00;;;15.80;99.90;;;;;;5079912;28;20032;-67
2022/10/26 08:14:38;;;;;;;7.68;1.88;;;15.90;99.90;;;;;;5097513;28;20361;-67
2022/10/26 08:17:03;;;;;;;4.13;1.73;;;16.00;99.90;;;;;;5096514;28;20028;-67
2022/10/26 08:19:29;;;;;;;6.00;1.65;;;16.10;99.90;;;;;;5096515;28;20028;-68
2022/10/26 08:21:56;;;;;;;7.35;1.95;;;16.10;99.90;;;;;;5079653;28;20028;-67
2022/10/26 08:24:22;;;;;;;6.03;1.60;;;16.20;99.90;;;;;;5096300;28;20087;-67
2022/10/26 08:26:48;;;;;;;6.15;1.77;;;16.40;99.90;;;;;;5097472;28;20310;-67
2022/10/26 08:29:13;;;;;;;3.60;1.70;;;16.40;99.90;;;;;;5096454;28;20368;-68
2022/10/26 08:31:39;;;;;;;5.60;1.77;;;16.40;99.90;;;;;;5079684;28;20103;-69
2022/10/26 08:34:05;;;;;;;7.32;1.55;;;16.50;99.90;;;;;;5096511;28;20036;-69
2022/10/26 08:36:31;;;;;;;5.07;2.22;;;16.50;99.90;;;;;;5096743;28;20036;-68
2022/10/26 08:38:57;;;;;;;6.40;2.20;;;16.60;99.90;;;;;;5097547;28;20028;-68
2022/10/26 08:41:36;;;;;;;4.35;1.88;;;16.60;99.90;;;;;;5079508;28;20068;-68
2022/10/26 08:44:57;;;;;;;2.72;1.60;;;16.70;99.90;;;;;;5096260;28;20028;-66
2022/10/26 08:47:27;;;;;;;5.15;1.75;;;16.70;99.90;;;;;;5081760;28;20036;-65
2022/10/26 08:50:08;;;;;;;3.80;1.70;;;16.80;99.90;;;;;;5096918;28;20088;-66
2022/10/26 08:52:54;;;;;;;9.13;1.73;;;16.80;99.90;;;;;;5096855;28;20024;-66
2022/10/26 08:55:27;;;;;;;6.00;1.63;;;16.90;99.90;;;;;;5096295;28;20044;-66
2022/10/26 08:57:54;;;;;;;6.20;1.63;;;16.90;99.90;;;;;;5096035;28;20056;-67
2022/10/26 09:00:24;;;;;;;4.80;1.50;;;16.80;99.90;;;;;;5096704;28;20063;-66
2022/10/26 09:02:51;;;;;;;6.68;1.50;;;16.90;99.90;;;;;;5096109;28;20028;-65
2022/10/26 09:05:23;;;;;;;5.38;1.50;;;17.00;99.90;;;;;;5096211;28;20354;-62
2022/10/26 09:08:18;;;;;;;6.82;1.83;;;17.10;99.90;;;;;;5079288;28;20107;-65
2022/10/26 09:10:56;;;;;;;4.90;1.67;;;17.20;99.90;;;;;;5086682;28;20124;-64
2022/10/26 09:13:44;;;;;;;5.50;1.73;;;17.20;99.90;;;;;;5096814;28;20036;-66
2022/10/26 09:16:23;;;;;;;7.03;1.80;;;17.50;99.90;;;;;;5097173;28;20028;-64
2022/10/26 09:19:00;;;;;;;3.20;1.52;;;17.40;99.90;;;;;;5096624;28;20040;-68
2022/10/26 09:21:51;;;;;;;4.15;1.38;;;17.20;99.90;;;;;;5096644;28;20040;-65
2022/10/26 09:24:28;;;;;;;5.22;1.60;;;17.20;99.90;;;;;;5078570;28;20421;-63
2022/10/26 09:26:58;;;;;;;5.07;1.48;;;17.40;99.90;;;;;;5096582;28;20085;-66
2022/10/26 09:29:38;;;;;;;3.60;1.60;;;17.40;99.90;;;;;;5079154;28;20439;-66
2022/10/26 09:32:09;;;;;;;4.43;1.48;;;17.50;99.90;;;;;;5096787;28;20138;-66
2022/10/26 09:34:51;;;;;;;7.40;1.67;;;17.60;99.90;;;;;;5096772;28;20117;-66
2022/10/26 09:37:27;;;;;;;6.37;1.50;;;17.80;99.90;;;;;;5096536;28;20064;-65
2022/10/26 09:40:26;;;;;;;5.18;1.42;;;17.90;99.90;;;;;;5099333;28;20032;-66
2022/10/26 09:43:23;;;;;;;6.85;1.40;;;18.10;99.90;;;;;;5100867;28;20032;-67
2022/10/26 09:45:51;;;;;;;4.25;1.60;;;18.10;99.90;;;;;;5097319;28;20083;-67
2022/10/26 09:48:42;;;;;;;5.53;1.60;;;18.20;99.90;;;;;;5099689;28;20028;-66
2022/10/26 09:51:09;;;;;;;2.95;1.27;;;18.50;99.90;;;;;;5099496;28;20028;-67
2022/10/26 09:53:36;;;;;;;6.05;1.90;;;18.70;99.90;;;;;;5099470;28;20032;-64
2022/10/26 09:56:08;;;;;;;6.63;1.58;;;19.10;99.90;;;;;;5099287;28;20123;-65
2022/10/26 09:58:49;;;;;;;4.05;1.25;;;19.00;99.90;;;;;;5100502;28;20040;-67
2022/10/26 10:01:21;;;;;;;5.13;1.17;;;19.50;99.90;;;;;;5099862;28;20050;-67
2022/10/26 10:03:47;;;;;;;5.30;1.40;;;19.80;99.90;;;;;;5099100;28;20063;-67
2022/10/26 10:06:18;;;;;;;5.95;1.48;;;20.00;99.90;;;;;;5099869;28;20035;-67
2022/10/26 10:09:09;;;;;;;9.60;1.35;;;19.60;99.90;;;;;;5099716;28;20081;-67
2022/10/26 10:11:54;;;;;;;5.25;1.50;;;19.50;99.90;;;;;;5099827;28;20376;-67
2022/10/26 10:14:22;;;;;;;3.20;1.15;;;19.60;99.90;;;;;;5099634;28;20032;-66
2022/10/26 10:17:00;;;;;;;4.07;1.27;;;19.60;99.90;;;;;;5100154;28;20056;-65
2022/10/26 10:19:34;;;;;;;4.30;1.10;;;19.90;99.90;;;;;;5099746;28;20036;-68
2022/10/26 10:22:07;;;;;;;7.20;1.80;;;20.30;99.90;;;;;;5100008;28;20261;-68
2022/10/26 10:24:35;;;;;;;3.90;1.10;;;20.50;99.90;;;;;;5099408;28;20077;-65
2022/10/26 10:27:15;;;;;;;7.07;1.48;;;20.90;99.90;;;;;;5099439;28;20353;-64
2022/10/26 10:29:44;;;;;;;4.70;1.17;;;21.50;99.90;;;;;;5099306;28;20036;-63
2022/10/26 10:32:30;;;;;;;4.60;1.60;;;21.10;99.90;;;;;;5098765;28;20016;-64
2022/10/26 10:35:00;;;;;;;4.32;0.98;;;21.60;99.90;;;;;;5099803;28;20055;-64
2022/10/26 10:37:35;;;;;;;4.65;1.20;;;21.80;99.90;;;;;;5099296;28;20107;-64
2022/10/26 10:40:08;;;;;;;3.90;1.10;;;21.70;99.90;;;;;;5099465;28;20046;-67
2022/10/26 10:42:36;;;;;;;2.60;1.02;;;22.20;99.90;;;;;;5099191;28;20135;-65
2022/10/26 10:45:04;;;;;;;2.85;1.10;;;22.00;99.90;;;;;;5098616;28;20028;-66
2022/10/26 10:47:35;;;;;;;3.33;0.88;;;22.20;99.90;;;;;;5099136;28;20028;-65
2022/10/26 10:50:07;;;;;;;7.63;1.00;;;21.70;99.90;;;;;;5096861;28;20119;-68
2022/10/26 10:52:35;;;;;;;3.73;1.13;;;21.20;99.90;;;;;;5099730;28;20024;-67
2022/10/26 10:55:14;;;;;;;4.32;1.00;;;20.90;99.90;;;;;;5098177;28;20032;-69
2022/10/26 10:58:00;;;;;;;3.45;0.80;;;21.20;99.90;;;;;;5098696;28;20151;-69
2022/10/26 11:00:26;;;;;;;2.70;0.90;;;21.50;99.90;;;;;;5098706;28;20035;-70
2022/10/26 11:03:07;;;;;;;5.82;1.33;;;21.70;99.90;;;;;;5099422;28;20036;-69
2022/10/26 11:05:54;;;;;;;5.05;1.30;;;21.50;99.90;;;;;;5097876;28;20356;-67
2022/10/26 11:08:27;;;;;;;3.00;1.17;;;21.50;99.90;;;;;;5098653;28;20020;-66
2022/10/26 11:11:02;;;;;;;3.58;1.20;;;21.70;99.90;;;;;;5098576;28;20032;-68
2022/10/26 11:13:41;;;;;;;4.13;1.10;;;21.50;99.90;;;;;;5098479;28;20028;-67
2022/10/26 11:16:15;;;;;;;2.70;1.00;;;21.60;99.90;;;;;;5098535;28;20067;-67
2022/10/26 11:18:52;;;;;;;4.53;1.10;;;21.60;99.90;;;;;;5098403;28;20303;-66
2022/10/26 11:21:24;;;;;;;5.78;1.35;;;21.90;99.90;;;;;;5098322;28;20027;-65
2022/10/26 11:24:12;;;;;;;2.35;1.10;;;21.50;99.90;;;;;;5098813;28;20441;-66
2022/10/26 11:27:03;;;;;;;5.78;1.20;;;21.20;99.90;;;;;;5098306;28;20020;-69
2022/10/26 11:29:35;;;;;;;7.47;1.33;;;20.80;99.90;;;;;;5098171;28;20032;-68
2022/10/26 11:32:10;;;;;;;4.32;1.42;;;20.90;99.90;;;;;;5097822;28;20059;-68
2022/10/26 11:34:44;;;;;;;6.15;1.40;;;20.90;99.90;;;;;;5097370;28;20028;-67
2022/10/26 11:37:36;;;;;;;3.22;1.10;;;20.50;99.90;;;;;;5098181;28;20031;-69
2022/10/26 11:40:32;;;;;;;4.85;1.40;;;20.50;99.90;;;;;;5098108;28;20291;-69
2022/10/26 11:43:31;;;;;;;3.53;1.27;;;20.40;99.90;;;;;;5097279;28;20028;-69
2022/10/26 11:46:05;;;;;;;2.97;1.38;;;20.60;99.90;;;;;;5083668;28;20036;-68
2022/10/26 11:48:50;;;;;;;6.20;1.05;;;20.50;99.90;;;;;;5097939;28;20030;-68
2022/10/26 11:51:32;;;;;;;2.67;1.00;;;20.70;99.90;;;;;;5097767;28;20035;-68
2022/10/26 11:54:06;;;;;;;6.10;1.20;;;20.80;99.90;;;;;;5097084;28;20178;-68
2022/10/26 11:56:46;;;;;;;3.83;1.50;;;20.80;99.90;;;;;;5097504;28;20401;-69
2022/10/26 11:59:20;;;;;;;5.35;1.15;;;20.70;99.90;;;;;;5097644;28;20035;-66
2022/10/26 12:01:59;;;;;;;3.40;1.42;;;21.00;99.90;;;;;;5096541;28;20314;-67
2022/10/26 12:04:32;;;;;;;4.05;0.98;;;20.80;99.90;;;;;;5096715;28;20117;-69
2022/10/26 12:07:01;;;;;;;6.47;1.20;;;20.80;99.90;;;;;;5097552;28;20115;-69
2022/10/26 12:09:32;;;;;;;4.68;1.15;;;20.90;99.90;;;;;;5097858;28;20070;-70
2022/10/26 12:12:20;;;;;;;2.53;1.00;;;21.00;99.90;;;;;;5097006;28;20035;-70
2022/10/26 12:15:05;;;;;;;3.85;1.10;;;20.90;99.90;;;;;;5097469;28;20028;-68
2022/10/26 12:17:43;;;;;;;4.05;1.30;;;20.80;99.90;;;;;;5096613;28;20118;-70
2022/10/26 12:21:04;;;;;;;3.13;1.00;;;20.60;99.90;;;;;;5096716;28;20429;-70
2022/10/26 12:23:37;;;;;;;3.03;1.20;;;20.80;99.90;;;;;;5049652;28;20044;-70
2022/10/26 12:26:21;;;;;;;4.38;1.20;;;20.90;99.90;;;;;;5096519;28;20123;-68
2022/10/26 12:28:47;;;;;;;3.35;1.05;;;20.90;99.90;;;;;;5096430;28;20043;-69
2022/10/26 12:31:34;;;;;;;4.63;1.33;;;20.90;99.90;;;;;;5096502;28;20116;-71
2022/10/26 12:34:01;;;;;;;4.95;1.08;;;20.90;99.90;;;;;;5097156;28;20043;-70
2022/10/26 12:36:46;;;;;;;4.63;1.40;;;20.90;99.90;;;;;;5097196;28;20036;-68
2022/10/26 12:39:35;;;;;;;4.22;1.00;;;20.70;99.90;;;;;;5096417;28;20109;-71
2022/10/26 12:42:06;;;;;;;3.55;0.90;;;20.80;99.90;;;;;;5087134;28;20406;-69
2022/10/26 12:44:36;;;;;;;3.15;1.10;;;20.90;99.90;;;;;;5096939;28;20025;-69
2022/10/26 12:47:04;;;;;;;6.93;1.48;;;21.20;99.90;;;;;;5097279;28;20012;-70
2022/10/26 12:50:01;;;;;;;5.03;1.10;;;21.20;99.90;;;;;;5095936;28;20020;-69
2022/10/26 12:52:58;;;;;;;5.45;1.38;;;21.20;99.90;;;;;;5097050;28;20036;-70
2022/10/26 12:55:48;;;;;;;4.07;1.00;;;21.10;99.90;;;;;;5096192;28;20356;-70
2022/10/26 12:58:52;;;;;;;4.65;0.95;;;21.10;99.90;;;;;;5096741;28;20048;-69
2022/10/26 13:01:37;;;;;;;3.33;0.85;;;21.30;99.90;;;;;;5096760;28;20295;-69
2022/10/26 13:04:05;;;;;;;3.35;0.82;;;21.40;99.90;;;;;;5096049;28;20107;-68
2022/10/26 13:06:34;;;;;;;2.17;1.00;;;21.50;99.90;;;;;;5095939;28;20032;-68
2022/10/26 13:09:08;;;;;;;2.92;0.88;;;21.60;99.90;;;;;;5096019;28;20035;-68
2022/10/26 13:11:41;;;;;;;4.53;1.10;;;21.60;99.90;;;;;;5096718;28;20097;-68
2022/10/26 13:14:26;;;;;;;2.80;0.80;;;21.70;99.90;;;;;;5098777;28;20043;-68